Terminal Aerodrome Forecast
Issued by NWS Dodge City, KS

Home | Current Version | Previous Version | Graphics & Text | Print | Product List | Glossary Off
Versions: 1 2 3 4 5 6 7 8 9 10 11 12 13 14 15 16 17 18 19 20 21 22 23 24 25 26 27

000
FTUS43 KDDC 230730 AAA
TAFDDC
TAF AMD
KDDC 230730Z 2308/2406 15014KT P6SM OVC009
     FM231500 18019G28KT 5SM BR BKN020
     FM231700 18021G30KT P6SM BKN060
     FM240000 16022G33KT P6SM -SHRA VCTS BKN090CB=

USA.gov is the U.S. government's official web portal to all federal, state and local government web resources and services.